BVX34GB LFBO-EGKK
Flight info
| Callsign | BVX34GB |
|---|---|
| Flight time | N/A |
| Altitude | 34000 |
| Route | LACOU DCT CHALA DCT CNA DCT MANAK DCT EPAPU DCT RINSO DCT EKRAS DCT REVTU DCT BOLRO UP87 ROXOG |
| Aircraft | A35K/H-SDE2E3GHIJ3J4J5LM1ORWXY/LB1D1 |
Departure
| Time | N/A |
|---|---|
| Airport | Toulouse-Blagnac Airport (LFBO) |
Arrival
| Time | 2026-05-05 12:04 |
|---|---|
| Airport | London Gatwick Airport (EGKK) |
| Time | Latitude | Longitude | Altitude | Speed | Heading |
|---|---|---|---|---|---|
| 2026-05-05 11:28 | 48.28804 | -1.14312 | 33888 ft | 517 kts | 340° |
| 2026-05-05 11:29 | 48.35550 | -1.18124 | 33893 ft | 517 kts | 340° |
| 2026-05-05 11:29 | 48.42293 | -1.21941 | 33903 ft | 517 kts | 340° |
| 2026-05-05 11:30 | 48.48981 | -1.25729 | 33908 ft | 518 kts | 340° |
| 2026-05-05 11:30 | 48.55741 | -1.29563 | 33907 ft | 518 kts | 340° |
| 2026-05-05 11:31 | 48.62489 | -1.33395 | 33912 ft | 518 kts | 340° |
| 2026-05-05 11:31 | 48.69251 | -1.37240 | 33913 ft | 519 kts | 340° |
| 2026-05-05 11:32 | 48.76020 | -1.41091 | 33925 ft | 520 kts | 340° |
| 2026-05-05 11:32 | 48.82755 | -1.44928 | 33928 ft | 520 kts | 340° |
| 2026-05-05 11:33 | 48.89526 | -1.48789 | 33928 ft | 520 kts | 340° |
| 2026-05-05 11:33 | 48.96308 | -1.52662 | 33933 ft | 519 kts | 340° |
| 2026-05-05 11:34 | 49.03077 | -1.56532 | 33933 ft | 520 kts | 340° |
| 2026-05-05 11:34 | 49.09854 | -1.60415 | 33940 ft | 519 kts | 339° |
| 2026-05-05 11:35 | 49.16548 | -1.64254 | 33944 ft | 516 kts | 339° |
| 2026-05-05 11:35 | 49.23080 | -1.68003 | 33947 ft | 515 kts | 339° |
| 2026-05-05 11:36 | 49.29806 | -1.71864 | 33942 ft | 516 kts | 339° |
| 2026-05-05 11:36 | 49.36518 | -1.75668 | 33953 ft | 513 kts | 342° |
| 2026-05-05 11:37 | 49.43513 | -1.77507 | 33957 ft | 511 kts | 0° |
| 2026-05-05 11:37 | 49.50528 | -1.76123 | 33956 ft | 509 kts | 14° |
| 2026-05-05 11:38 | 49.57322 | -1.73065 | 33967 ft | 508 kts | 18° |
| 2026-05-05 11:38 | 49.64036 | -1.69744 | 33844 ft | 502 kts | 19° |
| 2026-05-05 11:38 | 49.67350 | -1.68085 | 33143 ft | 500 kts | 19° |
| 2026-05-05 11:39 | 49.70671 | -1.66413 | 32285 ft | 503 kts | 19° |
| 2026-05-05 11:39 | 49.73992 | -1.64736 | 31535 ft | 501 kts | 19° |
| 2026-05-05 11:39 | 49.77303 | -1.63061 | 30792 ft | 500 kts | 19° |
| 2026-05-05 11:39 | 49.80556 | -1.61228 | 30230 ft | 494 kts | 25° |
| 2026-05-05 11:40 | 49.83645 | -1.58994 | 29991 ft | 486 kts | 28° |
| 2026-05-05 11:40 | 49.89598 | -1.54153 | 29963 ft | 486 kts | 30° |
| 2026-05-05 11:41 | 49.95525 | -1.49102 | 29780 ft | 480 kts | 31° |
| 2026-05-05 11:41 | 49.98457 | -1.46600 | 28827 ft | 482 kts | 30° |
| 2026-05-05 11:41 | 50.01422 | -1.44077 | 27821 ft | 486 kts | 30° |
| 2026-05-05 11:41 | 50.04381 | -1.41565 | 27078 ft | 484 kts | 30° |
| 2026-05-05 11:42 | 50.07338 | -1.39061 | 26390 ft | 481 kts | 30° |
| 2026-05-05 11:42 | 50.10271 | -1.36578 | 25731 ft | 478 kts | 30° |
| 2026-05-05 11:42 | 50.13158 | -1.34131 | 25015 ft | 477 kts | 29° |
| 2026-05-05 11:42 | 50.16070 | -1.31659 | 24357 ft | 474 kts | 29° |
| 2026-05-05 11:43 | 50.18934 | -1.29223 | 23609 ft | 466 kts | 29° |
| 2026-05-05 11:43 | 50.21764 | -1.26812 | 22666 ft | 459 kts | 29° |
| 2026-05-05 11:43 | 50.24534 | -1.24451 | 22077 ft | 448 kts | 29° |
| 2026-05-05 11:43 | 50.27250 | -1.22132 | 21573 ft | 440 kts | 29° |
| 2026-05-05 11:44 | 50.29912 | -1.19856 | 21090 ft | 432 kts | 29° |
| 2026-05-05 11:44 | 50.32497 | -1.17643 | 20636 ft | 425 kts | 29° |
| 2026-05-05 11:44 | 50.35066 | -1.15441 | 20184 ft | 418 kts | 29° |
| 2026-05-05 11:44 | 50.37630 | -1.13239 | 19716 ft | 411 kts | 29° |
| 2026-05-05 11:45 | 50.40084 | -1.11130 | 19263 ft | 404 kts | 29° |
| 2026-05-05 11:45 | 50.42531 | -1.09024 | 18813 ft | 398 kts | 29° |
| 2026-05-05 11:45 | 50.44949 | -1.06940 | 18345 ft | 394 kts | 29° |
| 2026-05-05 11:45 | 50.47341 | -1.04878 | 17874 ft | 389 kts | 30° |
| 2026-05-05 11:46 | 50.49696 | -1.02845 | 17420 ft | 384 kts | 29° |
| 2026-05-05 11:46 | 50.52019 | -1.00838 | 16978 ft | 378 kts | 29° |
| 2026-05-05 11:46 | 50.54309 | -0.98856 | 16542 ft | 373 kts | 29° |
| 2026-05-05 11:46 | 50.56577 | -0.96892 | 16102 ft | 368 kts | 29° |
| 2026-05-05 11:47 | 50.58808 | -0.94957 | 15671 ft | 364 kts | 29° |
| 2026-05-05 11:47 | 50.60972 | -0.93047 | 15356 ft | 356 kts | 32° |
| 2026-05-05 11:47 | 50.62951 | -0.90713 | 15315 ft | 362 kts | 43° |
| 2026-05-05 11:47 | 50.64617 | -0.87673 | 15044 ft | 372 kts | 54° |
| 2026-05-05 11:48 | 50.67160 | -0.80552 | 14271 ft | 371 kts | 64° |
| 2026-05-05 11:48 | 50.68233 | -0.76859 | 13863 ft | 368 kts | 65° |
| 2026-05-05 11:48 | 50.69275 | -0.73187 | 13415 ft | 365 kts | 65° |
| 2026-05-05 11:49 | 50.70327 | -0.69537 | 12956 ft | 363 kts | 65° |
| 2026-05-05 11:49 | 50.71390 | -0.65937 | 12441 ft | 360 kts | 64° |
| 2026-05-05 11:49 | 50.72467 | -0.62412 | 11957 ft | 353 kts | 64° |
| 2026-05-05 11:49 | 50.73531 | -0.58964 | 11538 ft | 345 kts | 64° |
| 2026-05-05 11:50 | 50.74560 | -0.55630 | 11151 ft | 338 kts | 64° |
| 2026-05-05 11:50 | 50.75579 | -0.52326 | 10751 ft | 331 kts | 64° |
| 2026-05-05 11:50 | 50.76573 | -0.49101 | 10481 ft | 321 kts | 64° |
| 2026-05-05 11:50 | 50.77533 | -0.45983 | 10260 ft | 310 kts | 64° |
| 2026-05-05 11:51 | 50.78450 | -0.42999 | 9909 ft | 294 kts | 64° |
| 2026-05-05 11:51 | 50.79331 | -0.40128 | 9276 ft | 287 kts | 64° |
| 2026-05-05 11:51 | 50.80204 | -0.37284 | 8762 ft | 287 kts | 64° |
| 2026-05-05 11:51 | 50.81065 | -0.34472 | 8411 ft | 282 kts | 64° |
| 2026-05-05 11:52 | 50.81914 | -0.31698 | 8070 ft | 277 kts | 64° |
| 2026-05-05 11:52 | 50.82734 | -0.29011 | 7962 ft | 262 kts | 64° |
| 2026-05-05 11:52 | 50.83492 | -0.26526 | 7953 ft | 247 kts | 64° |
| 2026-05-05 11:52 | 50.84230 | -0.24110 | 7962 ft | 243 kts | 64° |
| 2026-05-05 11:53 | 50.84965 | -0.21696 | 7966 ft | 244 kts | 64° |
| 2026-05-05 11:53 | 50.85701 | -0.19280 | 7966 ft | 244 kts | 64° |
| 2026-05-05 11:53 | 50.86437 | -0.16859 | 7966 ft | 244 kts | 64° |
| 2026-05-05 11:53 | 50.87214 | -0.14474 | 7961 ft | 244 kts | 57° |
| 2026-05-05 11:54 | 50.88392 | -0.12580 | 7962 ft | 243 kts | 31° |
| 2026-05-05 11:54 | 50.89988 | -0.11793 | 7919 ft | 244 kts | 3° |
| 2026-05-05 11:54 | 50.91636 | -0.12331 | 7793 ft | 244 kts | 333° |
| 2026-05-05 11:54 | 50.92906 | -0.14099 | 7586 ft | 247 kts | 304° |
| 2026-05-05 11:55 | 50.93685 | -0.16540 | 7182 ft | 249 kts | 292° |
| 2026-05-05 11:55 | 50.94310 | -0.19102 | 6804 ft | 249 kts | 291° |
| 2026-05-05 11:55 | 50.94908 | -0.21689 | 6433 ft | 249 kts | 291° |
| 2026-05-05 11:55 | 50.95493 | -0.24236 | 6057 ft | 249 kts | 291° |
| 2026-05-05 11:56 | 50.96084 | -0.26808 | 5755 ft | 245 kts | 291° |
| 2026-05-05 11:56 | 50.96661 | -0.29330 | 5435 ft | 242 kts | 291° |
| 2026-05-05 11:56 | 50.97213 | -0.31773 | 5214 ft | 228 kts | 291° |
| 2026-05-05 11:56 | 50.97731 | -0.34077 | 4994 ft | 214 kts | 291° |
| 2026-05-05 11:57 | 50.98211 | -0.36268 | 4682 ft | 208 kts | 291° |
| 2026-05-05 11:57 | 50.98674 | -0.38426 | 4413 ft | 202 kts | 291° |
| 2026-05-05 11:57 | 50.99111 | -0.40505 | 4220 ft | 197 kts | 291° |
| 2026-05-05 11:57 | 50.99537 | -0.42535 | 4024 ft | 196 kts | 290° |
| 2026-05-05 11:58 | 51.00189 | -0.44396 | 3869 ft | 190 kts | 320° |
| 2026-05-05 11:58 | 51.01280 | -0.45490 | 3767 ft | 184 kts | 339° |
| 2026-05-05 11:58 | 51.02453 | -0.46308 | 3651 ft | 183 kts | 340° |
| 2026-05-05 11:58 | 51.03625 | -0.47087 | 3560 ft | 182 kts | 341° |
| 2026-05-05 11:59 | 51.04788 | -0.47867 | 3463 ft | 181 kts | 340° |
| 2026-05-05 11:59 | 51.05953 | -0.48629 | 3351 ft | 181 kts | 341° |
| 2026-05-05 11:59 | 51.07145 | -0.49199 | 3236 ft | 179 kts | 359° |
| 2026-05-05 11:59 | 51.08304 | -0.48673 | 3141 ft | 174 kts | 32° |
| 2026-05-05 12:00 | 51.09253 | -0.47518 | 3047 ft | 175 kts | 39° |
| 2026-05-05 12:00 | 51.10160 | -0.46236 | 3003 ft | 175 kts | 41° |
| 2026-05-05 12:00 | 51.11041 | -0.44888 | 2994 ft | 177 kts | 49° |
| 2026-05-05 12:00 | 51.11537 | -0.43120 | 2988 ft | 172 kts | 76° |
| 2026-05-05 12:01 | 51.11728 | -0.41321 | 2872 ft | 161 kts | 77° |
| 2026-05-05 12:01 | 51.11965 | -0.39606 | 2658 ft | 157 kts | 72° |
| 2026-05-05 12:01 | 51.12209 | -0.37910 | 2439 ft | 157 kts | 73° |
| 2026-05-05 12:01 | 51.12442 | -0.36210 | 2211 ft | 157 kts | 75° |
| 2026-05-05 12:02 | 51.12670 | -0.34547 | 1999 ft | 153 kts | 73° |
| 2026-05-05 12:02 | 51.12902 | -0.32884 | 1791 ft | 155 kts | 73° |
| 2026-05-05 12:02 | 51.13135 | -0.31197 | 1575 ft | 156 kts | 73° |
| 2026-05-05 12:02 | 51.13368 | -0.29506 | 1367 ft | 156 kts | 74° |
| 2026-05-05 12:03 | 51.13595 | -0.27855 | 1135 ft | 149 kts | 73° |
| 2026-05-05 12:03 | 51.13815 | -0.26267 | 944 ft | 145 kts | 74° |
| 2026-05-05 12:03 | 51.14029 | -0.24710 | 741 ft | 142 kts | 74° |
| 2026-05-05 12:03 | 51.14233 | -0.23161 | 578 ft | 144 kts | 75° |
| 2026-05-05 12:04 | 51.14446 | -0.21621 | 366 ft | 144 kts | 75° |
| 2026-05-05 12:04 | 51.14666 | -0.20068 | 221 ft | 145 kts | 73° |
| 2026-05-05 12:04 | 51.14857 | -0.18724 | 217 ft | 91 kts | 78° |
| 2026-05-05 12:04 | 51.14939 | -0.18119 | 217 ft | 29 kts | 75° |
| 2026-05-05 12:05 | 51.15016 | -0.17877 | 220 ft | 19 kts | 53° |
| 2026-05-05 12:05 | 51.15078 | -0.17762 | 219 ft | 11 kts | 32° |
| 2026-05-05 12:05 | 51.15133 | -0.17758 | 214 ft | 0 kts | 351° |
| 2026-05-05 12:06 | 51.15134 | -0.17758 | 214 ft | 1 kts | 351° |
| 2026-05-05 12:06 | 51.15178 | -0.17767 | 214 ft | 9 kts | 353° |
| 2026-05-05 12:06 | 51.15241 | -0.17764 | 217 ft | 9 kts | 30° |
| 2026-05-05 12:07 | 51.15269 | -0.17669 | 217 ft | 11 kts | 77° |
| 2026-05-05 12:07 | 51.15286 | -0.17551 | 213 ft | 9 kts | 77° |
| 2026-05-05 12:07 | 51.15298 | -0.17453 | 219 ft | 9 kts | 80° |
| 2026-05-05 12:07 | 51.15323 | -0.17375 | 221 ft | 7 kts | 27° |
| 2026-05-05 12:08 | 51.15378 | -0.17379 | 220 ft | 9 kts | 349° |
| 2026-05-05 12:08 | 51.15444 | -0.17402 | 216 ft | 11 kts | 348° |
| 2026-05-05 12:08 | 51.15500 | -0.17421 | 214 ft | 7 kts | 347° |
| 2026-05-05 12:08 | 51.15553 | -0.17439 | 212 ft | 8 kts | 352° |
| 2026-05-05 12:09 | 51.15590 | -0.17389 | 220 ft | 7 kts | 72° |
| 2026-05-05 12:09 | 51.15601 | -0.17313 | 215 ft | 6 kts | 84° |
| 2026-05-05 12:09 | 51.15587 | -0.17262 | 221 ft | 4 kts | 121° |
| 2026-05-05 12:09 | 51.15570 | -0.17229 | 219 ft | 3 kts | 131° |
| 2026-05-05 12:10 | 51.15554 | -0.17201 | 221 ft | 3 kts | 133° |
| 2026-05-05 12:10 | 51.15542 | -0.17180 | 219 ft | 0 kts | 134° |